sensor_id;sensor_type;location;lat;lon;timestamp;P1;durP1;ratioP1;P2;durP2;ratioP2
609;SDS011;292;48.800;9.216;2024-03-23T00:54:31;12.80;;;6.90;;
609;SDS011;292;48.800;9.216;2024-03-23T00:56:57;16.43;;;7.60;;
609;SDS011;292;48.800;9.216;2024-03-23T00:59:24;18.40;;;7.80;;
609;SDS011;292;48.800;9.216;2024-03-23T01:01:53;14.27;;;6.63;;
609;SDS011;292;48.800;9.216;2024-03-23T01:04:20;13.47;;;6.93;;
609;SDS011;292;48.800;9.216;2024-03-23T01:06:46;12.00;;;6.67;;
609;SDS011;292;48.800;9.216;2024-03-23T01:09:13;19.07;;;6.70;;
609;SDS011;292;48.800;9.216;2024-03-23T01:11:41;17.23;;;6.93;;
609;SDS011;292;48.800;9.216;2024-03-23T01:14:08;14.33;;;7.73;;
609;SDS011;292;48.800;9.216;2024-03-23T01:16:34;13.90;;;6.47;;
609;SDS011;292;48.800;9.216;2024-03-23T01:19:01;12.10;;;5.97;;
609;SDS011;292;48.800;9.216;2024-03-23T01:21:27;11.90;;;6.23;;
609;SDS011;292;48.800;9.216;2024-03-23T01:23:54;12.70;;;6.80;;
609;SDS011;292;48.800;9.216;2024-03-23T01:26:20;12.60;;;6.70;;
609;SDS011;292;48.800;9.216;2024-03-23T01:28:49;15.83;;;7.03;;
609;SDS011;292;48.800;9.216;2024-03-23T01:31:14;14.17;;;6.33;;
609;SDS011;292;48.800;9.216;2024-03-23T01:33:42;15.80;;;7.40;;
609;SDS011;292;48.800;9.216;2024-03-23T01:36:08;14.47;;;6.70;;
609;SDS011;292;48.800;9.216;2024-03-23T01:38:35;10.90;;;7.07;;
609;SDS011;292;48.800;9.216;2024-03-23T01:41:01;10.20;;;5.90;;
609;SDS011;292;48.800;9.216;2024-03-23T01:43:28;13.67;;;7.53;;
609;SDS011;292;48.800;9.216;2024-03-23T01:45:55;14.33;;;7.40;;
609;SDS011;292;48.800;9.216;2024-03-23T01:48:24;12.70;;;7.40;;
609;SDS011;292;48.800;9.216;2024-03-23T01:50:50;9.93;;;5.77;;
609;SDS011;292;48.800;9.216;2024-03-23T01:53:18;13.80;;;6.00;;
609;SDS011;292;48.800;9.216;2024-03-23T01:55:46;9.10;;;4.70;;
609;SDS011;292;48.800;9.216;2024-03-23T01:58:13;8.67;;;4.90;;
609;SDS011;292;48.800;9.216;2024-03-23T02:00:40;10.87;;;5.90;;
609;SDS011;292;48.800;9.216;2024-03-23T02:06:03;8.20;;;4.37;;
609;SDS011;292;48.800;9.216;2024-03-23T02:08:32;9.50;;;5.30;;
609;SDS011;292;48.800;9.216;2024-03-23T02:10:58;8.00;;;4.00;;
609;SDS011;292;48.800;9.216;2024-03-23T02:13:25;9.93;;;3.57;;
609;SDS011;292;48.800;9.216;2024-03-23T02:15:51;6.90;;;4.20;;
609;SDS011;292;48.800;9.216;2024-03-23T02:18:18;7.60;;;4.63;;
609;SDS011;292;48.800;9.216;2024-03-23T02:20:44;6.40;;;2.40;;
609;SDS011;292;48.800;9.216;2024-03-23T02:23:16;4.87;;;2.40;;
609;SDS011;292;48.800;9.216;2024-03-23T02:25:43;5.90;;;2.70;;
609;SDS011;292;48.800;9.216;2024-03-23T02:28:10;4.50;;;2.20;;
609;SDS011;292;48.800;9.216;2024-03-23T02:30:36;6.30;;;3.50;;
609;SDS011;292;48.800;9.216;2024-03-23T02:33:04;4.87;;;1.97;;
609;SDS011;292;48.800;9.216;2024-03-23T02:35:30;6.87;;;1.90;;
609;SDS011;292;48.800;9.216;2024-03-23T02:37:57;5.73;;;2.13;;
609;SDS011;292;48.800;9.216;2024-03-23T02:40:24;6.70;;;2.20;;
609;SDS011;292;48.800;9.216;2024-03-23T02:42:51;2.73;;;1.77;;
609;SDS011;292;48.800;9.216;2024-03-23T02:45:17;4.03;;;2.17;;
609;SDS011;292;48.800;9.216;2024-03-23T02:47:45;8.43;;;2.13;;
609;SDS011;292;48.800;9.216;2024-03-23T02:50:11;5.50;;;2.10;;
609;SDS011;292;48.800;9.216;2024-03-23T02:52:39;3.63;;;2.10;;
609;SDS011;292;48.800;9.216;2024-03-23T02:55:06;5.63;;;2.83;;
609;SDS011;292;48.800;9.216;2024-03-23T02:57:34;6.20;;;2.20;;
609;SDS011;292;48.800;9.216;2024-03-23T03:00:02;5.70;;;2.43;;
609;SDS011;292;48.800;9.216;2024-03-23T03:02:32;5.13;;;2.50;;
609;SDS011;292;48.800;9.216;2024-03-23T03:04:58;4.60;;;2.80;;
609;SDS011;292;48.800;9.216;2024-03-23T03:07:25;5.00;;;2.53;;
609;SDS011;292;48.800;9.216;2024-03-23T03:09:51;5.83;;;2.10;;
609;SDS011;292;48.800;9.216;2024-03-23T03:12:18;7.80;;;2.10;;
609;SDS011;292;48.800;9.216;2024-03-23T03:14:45;7.40;;;2.67;;
609;SDS011;292;48.800;9.216;2024-03-23T03:17:13;2.83;;;2.17;;
609;SDS011;292;48.800;9.216;2024-03-23T03:19:40;5.17;;;2.40;;
609;SDS011;292;48.800;9.216;2024-03-23T03:22:09;8.03;;;2.60;;
609;SDS011;292;48.800;9.216;2024-03-23T03:24:34;13.23;;;2.63;;
609;SDS011;292;48.800;9.216;2024-03-23T03:27:01;7.37;;;2.33;;
609;SDS011;292;48.800;9.216;2024-03-23T03:29:28;9.33;;;2.87;;
609;SDS011;292;48.800;9.216;2024-03-23T03:32:02;4.07;;;2.00;;
609;SDS011;292;48.800;9.216;2024-03-23T03:34:27;3.87;;;1.80;;
609;SDS011;292;48.800;9.216;2024-03-23T03:36:55;8.90;;;2.60;;
609;SDS011;292;48.800;9.216;2024-03-23T03:39:21;2.60;;;1.87;;
609;SDS011;292;48.800;9.216;2024-03-23T03:41:48;4.80;;;2.07;;
609;SDS011;292;48.800;9.216;2024-03-23T03:44:14;3.80;;;2.10;;
609;SDS011;292;48.800;9.216;2024-03-23T03:46:42;4.67;;;2.10;;
609;SDS011;292;48.800;9.216;2024-03-23T03:49:10;4.07;;;2.17;;
609;SDS011;292;48.800;9.216;2024-03-23T03:51:38;5.27;;;2.70;;
609;SDS011;292;48.800;9.216;2024-03-23T03:54:04;3.97;;;2.33;;
609;SDS011;292;48.800;9.216;2024-03-23T03:56:31;4.40;;;1.70;;
609;SDS011;292;48.800;9.216;2024-03-23T03:58:57;7.17;;;2.07;;
609;SDS011;292;48.800;9.216;2024-03-23T04:01:24;5.47;;;2.33;;
609;SDS011;292;48.800;9.216;2024-03-23T04:03:50;2.87;;;2.07;;
609;SDS011;292;48.800;9.216;2024-03-23T04:06:22;6.40;;;2.40;;
609;SDS011;292;48.800;9.216;2024-03-23T04:08:48;3.40;;;1.53;;
609;SDS011;292;48.800;9.216;2024-03-23T04:11:15;3.37;;;2.10;;
609;SDS011;292;48.800;9.216;2024-03-23T04:13:41;5.37;;;2.07;;
609;SDS011;292;48.800;9.216;2024-03-23T04:16:09;4.70;;;2.37;;
609;SDS011;292;48.800;9.216;2024-03-23T04:18:35;5.63;;;2.40;;
609;SDS011;292;48.800;9.216;2024-03-23T04:21:02;4.63;;;2.00;;
609;SDS011;292;48.800;9.216;2024-03-23T04:23:30;5.07;;;2.73;;
609;SDS011;292;48.800;9.216;2024-03-23T04:26:02;7.40;;;2.30;;
609;SDS011;292;48.800;9.216;2024-03-23T04:28:42;11.77;;;2.57;;
609;SDS011;292;48.800;9.216;2024-03-23T04:31:09;4.43;;;2.27;;
609;SDS011;292;48.800;9.216;2024-03-23T04:33:37;5.60;;;2.47;;
609;SDS011;292;48.800;9.216;2024-03-23T04:36:06;5.20;;;2.63;;
609;SDS011;292;48.800;9.216;2024-03-23T04:38:33;4.73;;;2.73;;
609;SDS011;292;48.800;9.216;2024-03-23T04:41:01;7.40;;;2.60;;
609;SDS011;292;48.800;9.216;2024-03-23T04:43:29;5.20;;;2.80;;
609;SDS011;292;48.800;9.216;2024-03-23T04:45:56;9.70;;;3.90;;
609;SDS011;292;48.800;9.216;2024-03-23T04:48:23;6.67;;;3.77;;
609;SDS011;292;48.800;9.216;2024-03-23T04:50:54;6.90;;;3.43;;
609;SDS011;292;48.800;9.216;2024-03-23T04:53:22;7.27;;;4.30;;
609;SDS011;292;48.800;9.216;2024-03-23T04:55:54;6.53;;;4.20;;
609;SDS011;292;48.800;9.216;2024-03-23T04:58:21;8.83;;;4.90;;
609;SDS011;292;48.800;9.216;2024-03-23T05:00:48;11.30;;;5.77;;
609;SDS011;292;48.800;9.216;2024-03-23T05:03:19;10.40;;;4.93;;
609;SDS011;292;48.800;9.216;2024-03-23T05:05:46;10.47;;;5.60;;
609;SDS011;292;48.800;9.216;2024-03-23T05:08:13;10.53;;;6.47;;
609;SDS011;292;48.800;9.216;2024-03-23T05:10:41;13.57;;;7.87;;
609;SDS011;292;48.800;9.216;2024-03-23T05:13:08;13.87;;;7.73;;
609;SDS011;292;48.800;9.216;2024-03-23T05:15:35;19.43;;;8.87;;
609;SDS011;292;48.800;9.216;2024-03-23T05:18:01;17.37;;;9.33;;
609;SDS011;292;48.800;9.216;2024-03-23T05:20:30;24.77;;;9.30;;
609;SDS011;292;48.800;9.216;2024-03-23T05:22:56;29.47;;;10.47;;
609;SDS011;292;48.800;9.216;2024-03-23T05:25:23;21.70;;;9.93;;
609;SDS011;292;48.800;9.216;2024-03-23T05:27:49;25.63;;;10.33;;
609;SDS011;292;48.800;9.216;2024-03-23T05:30:17;19.53;;;10.60;;
609;SDS011;292;48.800;9.216;2024-03-23T05:32:43;17.90;;;10.67;;
609;SDS011;292;48.800;9.216;2024-03-23T05:35:10;20.13;;;11.10;;
609;SDS011;292;48.800;9.216;2024-03-23T05:37:37;26.70;;;11.23;;
609;SDS011;292;48.800;9.216;2024-03-23T05:40:04;21.07;;;10.80;;
609;SDS011;292;48.800;9.216;2024-03-23T05:42:30;19.23;;;10.20;;
609;SDS011;292;48.800;9.216;2024-03-23T05:44:57;19.90;;;10.70;;
609;SDS011;292;48.800;9.216;2024-03-23T05:47:39;21.70;;;10.70;;
609;SDS011;292;48.800;9.216;2024-03-23T05:50:10;19.47;;;10.00;;
609;SDS011;292;48.800;9.216;2024-03-23T05:52:44;19.03;;;9.60;;
609;SDS011;292;48.800;9.216;2024-03-23T05:55:11;19.30;;;9.37;;
609;SDS011;292;48.800;9.216;2024-03-23T05:57:37;16.93;;;8.37;;
609;SDS011;292;48.800;9.216;2024-03-23T06:00:05;18.90;;;8.20;;
609;SDS011;292;48.800;9.216;2024-03-23T06:02:37;15.10;;;6.53;;
609;SDS011;292;48.800;9.216;2024-03-23T06:05:04;9.90;;;5.43;;
609;SDS011;292;48.800;9.216;2024-03-23T06:07:30;8.20;;;4.10;;
609;SDS011;292;48.800;9.216;2024-03-23T06:09:57;5.80;;;3.33;;
609;SDS011;292;48.800;9.216;2024-03-23T06:12:23;5.37;;;3.20;;
609;SDS011;292;48.800;9.216;2024-03-23T06:14:50;9.77;;;3.30;;
609;SDS011;292;48.800;9.216;2024-03-23T06:17:16;4.70;;;3.00;;
609;SDS011;292;48.800;9.216;2024-03-23T06:19:44;4.27;;;2.73;;
609;SDS011;292;48.800;9.216;2024-03-23T06:22:10;4.40;;;2.27;;
609;SDS011;292;48.800;9.216;2024-03-23T06:24:37;5.03;;;2.40;;
609;SDS011;292;48.800;9.216;2024-03-23T06:27:03;4.33;;;2.10;;
609;SDS011;292;48.800;9.216;2024-03-23T06:29:30;3.33;;;1.63;;
609;SDS011;292;48.800;9.216;2024-03-23T06:31:56;5.33;;;2.10;;
609;SDS011;292;48.800;9.216;2024-03-23T06:34:23;4.13;;;2.17;;
609;SDS011;292;48.800;9.216;2024-03-23T06:36:50;3.27;;;1.93;;
609;SDS011;292;48.800;9.216;2024-03-23T06:39:17;2.90;;;1.70;;
609;SDS011;292;48.800;9.216;2024-03-23T06:41:44;3.33;;;1.70;;
609;SDS011;292;48.800;9.216;2024-03-23T06:44:18;3.83;;;1.90;;
609;SDS011;292;48.800;9.216;2024-03-23T06:46:44;2.30;;;1.60;;
609;SDS011;292;48.800;9.216;2024-03-23T06:49:11;3.63;;;1.33;;
609;SDS011;292;48.800;9.216;2024-03-23T06:51:37;2.97;;;1.43;;
609;SDS011;292;48.800;9.216;2024-03-23T06:54:06;1.13;;;0.90;;
609;SDS011;292;48.800;9.216;2024-03-23T06:56:32;2.37;;;1.27;;
609;SDS011;292;48.800;9.216;2024-03-23T06:58:59;1.60;;;1.00;;
609;SDS011;292;48.800;9.216;2024-03-23T07:01:25;1.17;;;0.90;;
609;SDS011;292;48.800;9.216;2024-03-23T07:03:53;1.80;;;0.93;;
609;SDS011;292;48.800;9.216;2024-03-23T07:06:19;0.90;;;0.70;;
609;SDS011;292;48.800;9.216;2024-03-23T07:08:46;0.90;;;0.70;;
609;SDS011;292;48.800;9.216;2024-03-23T07:11:16;1.47;;;0.60;;
609;SDS011;292;48.800;9.216;2024-03-23T07:13:49;1.53;;;0.60;;
609;SDS011;292;48.800;9.216;2024-03-23T07:16:15;0.70;;;0.60;;
609;SDS011;292;48.800;9.216;2024-03-23T07:18:43;1.03;;;0.57;;
609;SDS011;292;48.800;9.216;2024-03-23T07:21:09;1.00;;;0.60;;
609;SDS011;292;48.800;9.216;2024-03-23T07:23:36;1.17;;;0.40;;
609;SDS011;292;48.800;9.216;2024-03-23T07:26:03;2.47;;;0.53;;
609;SDS011;292;48.800;9.216;2024-03-23T07:28:32;11.93;;;0.63;;
609;SDS011;292;48.800;9.216;2024-03-23T07:31:02;0.87;;;0.57;;
609;SDS011;292;48.800;9.216;2024-03-23T07:33:30;1.00;;;0.70;;
609;SDS011;292;48.800;9.216;2024-03-23T07:35:56;0.97;;;0.60;;
609;SDS011;292;48.800;9.216;2024-03-23T07:38:25;0.83;;;0.70;;
609;SDS011;292;48.800;9.216;2024-03-23T07:40:52;0.60;;;0.60;;
609;SDS011;292;48.800;9.216;2024-03-23T07:43:21;0.40;;;0.40;;
609;SDS011;292;48.800;9.216;2024-03-23T07:45:52;0.60;;;0.50;;
609;SDS011;292;48.800;9.216;2024-03-23T07:48:20;1.33;;;0.60;;
609;SDS011;292;48.800;9.216;2024-03-23T07:50:57;1.43;;;0.60;;
609;SDS011;292;48.800;9.216;2024-03-23T07:53:27;0.70;;;0.50;;
609;SDS011;292;48.800;9.216;2024-03-23T07:55:57;1.10;;;0.50;;
609;SDS011;292;48.800;9.216;2024-03-23T07:58:24;0.60;;;0.50;;
609;SDS011;292;48.800;9.216;2024-03-23T08:00:54;2.50;;;0.50;;
609;SDS011;292;48.800;9.216;2024-03-23T08:03:21;0.40;;;0.40;;
609;SDS011;292;48.800;9.216;2024-03-23T08:05:51;1.43;;;0.60;;
609;SDS011;292;48.800;9.216;2024-03-23T08:08:17;0.70;;;0.50;;
609;SDS011;292;48.800;9.216;2024-03-23T08:10:48;0.50;;;0.50;;
609;SDS011;292;48.800;9.216;2024-03-23T08:13:14;0.60;;;0.60;;
609;SDS011;292;48.800;9.216;2024-03-23T08:15:41;0.87;;;0.60;;
609;SDS011;292;48.800;9.216;2024-03-23T08:18:09;1.57;;;0.40;;
609;SDS011;292;48.800;9.216;2024-03-23T08:20:36;0.40;;;0.40;;
609;SDS011;292;48.800;9.216;2024-03-23T08:23:02;1.43;;;0.70;;
609;SDS011;292;48.800;9.216;2024-03-23T08:25:30;0.70;;;0.60;;
609;SDS011;292;48.800;9.216;2024-03-23T08:27:57;2.40;;;0.93;;
609;SDS011;292;48.800;9.216;2024-03-23T08:30:24;1.47;;;0.50;;
609;SDS011;292;48.800;9.216;2024-03-23T08:32:50;6.00;;;1.10;;
609;SDS011;292;48.800;9.216;2024-03-23T08:35:18;0.57;;;0.53;;
609;SDS011;292;48.800;9.216;2024-03-23T08:37:45;1.10;;;0.60;;
609;SDS011;292;48.800;9.216;2024-03-23T08:40:12;2.70;;;0.90;;
609;SDS011;292;48.800;9.216;2024-03-23T08:42:38;0.60;;;0.40;;
609;SDS011;292;48.800;9.216;2024-03-23T08:45:05;3.10;;;0.90;;
609;SDS011;292;48.800;9.216;2024-03-23T08:47:33;2.70;;;0.60;;
609;SDS011;292;48.800;9.216;2024-03-23T08:50:01;2.23;;;0.77;;
609;SDS011;292;48.800;9.216;2024-03-23T08:52:28;0.83;;;0.60;;
609;SDS011;292;48.800;9.216;2024-03-23T08:54:55;2.47;;;0.80;;
609;SDS011;292;48.800;9.216;2024-03-23T08:57:22;6.30;;;1.60;;
609;SDS011;292;48.800;9.216;2024-03-23T08:59:49;5.40;;;1.30;;
609;SDS011;292;48.800;9.216;2024-03-23T09:02:15;5.43;;;1.50;;
609;SDS011;292;48.800;9.216;2024-03-23T09:04:43;4.83;;;1.37;;
609;SDS011;292;48.800;9.216;2024-03-23T09:07:14;4.00;;;1.43;;
609;SDS011;292;48.800;9.216;2024-03-23T09:09:42;9.70;;;1.77;;
609;SDS011;292;48.800;9.216;2024-03-23T09:12:08;6.77;;;1.67;;
609;SDS011;292;48.800;9.216;2024-03-23T09:14:35;8.37;;;2.00;;
609;SDS011;292;48.800;9.216;2024-03-23T09:17:01;7.40;;;2.10;;
609;SDS011;292;48.800;9.216;2024-03-23T09:19:29;10.90;;;2.27;;
609;SDS011;292;48.800;9.216;2024-03-23T09:21:55;14.13;;;2.57;;
609;SDS011;292;48.800;9.216;2024-03-23T09:24:22;7.43;;;2.42;;
609;SDS011;292;48.800;9.216;2024-03-23T09:26:51;5.70;;;2.17;;
609;SDS011;292;48.800;9.216;2024-03-23T09:29:18;9.87;;;2.80;;
609;SDS011;292;48.800;9.216;2024-03-23T09:31:44;5.80;;;1.90;;
609;SDS011;292;48.800;9.216;2024-03-23T09:34:11;10.53;;;2.83;;
609;SDS011;292;48.800;9.216;2024-03-23T09:36:37;8.83;;;2.37;;
609;SDS011;292;48.800;9.216;2024-03-23T09:39:04;8.07;;;2.27;;
609;SDS011;292;48.800;9.216;2024-03-23T09:41:31;3.57;;;1.90;;
609;SDS011;292;48.800;9.216;2024-03-23T09:44:00;6.23;;;2.53;;
609;SDS011;292;48.800;9.216;2024-03-23T09:46:26;7.80;;;2.33;;
609;SDS011;292;48.800;9.216;2024-03-23T09:48:54;7.77;;;2.33;;
609;SDS011;292;48.800;9.216;2024-03-23T09:51:21;6.43;;;1.87;;
609;SDS011;292;48.800;9.216;2024-03-23T09:53:49;7.33;;;2.40;;
609;SDS011;292;48.800;9.216;2024-03-23T09:56:17;11.40;;;2.47;;
609;SDS011;292;48.800;9.216;2024-03-23T09:58:44;8.10;;;2.33;;
609;SDS011;292;48.800;9.216;2024-03-23T10:01:11;4.67;;;2.00;;
609;SDS011;292;48.800;9.216;2024-03-23T10:03:42;11.10;;;2.47;;
609;SDS011;292;48.800;9.216;2024-03-23T10:06:14;11.37;;;2.50;;
609;SDS011;292;48.800;9.216;2024-03-23T10:08:49;4.60;;;1.97;;
609;SDS011;292;48.800;9.216;2024-03-23T10:11:16;6.73;;;2.40;;
609;SDS011;292;48.800;9.216;2024-03-23T10:13:43;9.30;;;2.63;;
609;SDS011;292;48.800;9.216;2024-03-23T10:16:13;6.23;;;2.80;;
609;SDS011;292;48.800;9.216;2024-03-23T10:18:48;9.10;;;2.90;;
609;SDS011;292;48.800;9.216;2024-03-23T10:21:14;9.50;;;3.70;;
609;SDS011;292;48.800;9.216;2024-03-23T10:23:42;10.20;;;3.40;;
609;SDS011;292;48.800;9.216;2024-03-23T10:26:12;11.20;;;3.50;;
609;SDS011;292;48.800;9.216;2024-03-23T10:31:24;9.33;;;3.27;;
609;SDS011;292;48.800;9.216;2024-03-23T10:33:51;10.03;;;2.90;;
609;SDS011;292;48.800;9.216;2024-03-23T10:36:20;10.13;;;3.33;;
609;SDS011;292;48.800;9.216;2024-03-23T10:38:49;7.40;;;2.73;;
609;SDS011;292;48.800;9.216;2024-03-23T10:41:16;9.23;;;2.77;;
609;SDS011;292;48.800;9.216;2024-03-23T10:43:45;5.60;;;2.10;;
609;SDS011;292;48.800;9.216;2024-03-23T10:46:12;10.53;;;2.70;;
609;SDS011;292;48.800;9.216;2024-03-23T10:48:41;11.03;;;2.30;;
609;SDS011;292;48.800;9.216;2024-03-23T10:51:08;12.90;;;3.47;;
609;SDS011;292;48.800;9.216;2024-03-23T10:53:37;10.90;;;2.30;;
609;SDS011;292;48.800;9.216;2024-03-23T10:56:03;10.07;;;2.53;;
609;SDS011;292;48.800;9.216;2024-03-23T10:58:33;9.77;;;2.47;;
609;SDS011;292;48.800;9.216;2024-03-23T11:01:03;12.30;;;2.80;;
609;SDS011;292;48.800;9.216;2024-03-23T11:03:31;9.97;;;3.70;;
609;SDS011;292;48.800;9.216;2024-03-23T11:06:00;13.70;;;3.60;;
609;SDS011;292;48.800;9.216;2024-03-23T11:08:31;7.20;;;3.60;;
609;SDS011;292;48.800;9.216;2024-03-23T11:11:11;4.80;;;1.90;;
609;SDS011;292;48.800;9.216;2024-03-23T11:13:44;7.07;;;2.13;;
609;SDS011;292;48.800;9.216;2024-03-23T11:16:14;7.38;;;2.00;;
609;SDS011;292;48.800;9.216;2024-03-23T11:18:41;6.75;;;2.35;;
609;SDS011;292;48.800;9.216;2024-03-23T11:21:10;5.50;;;2.25;;
609;SDS011;292;48.800;9.216;2024-03-23T11:23:39;4.40;;;1.98;;
609;SDS011;292;48.800;9.216;2024-03-23T11:26:08;8.57;;;1.90;;
609;SDS011;292;48.800;9.216;2024-03-23T11:28:35;3.90;;;1.85;;
609;SDS011;292;48.800;9.216;2024-03-23T11:31:01;7.53;;;2.90;;
609;SDS011;292;48.800;9.216;2024-03-23T11:33:35;7.32;;;2.72;;
609;SDS011;292;48.800;9.216;2024-03-23T11:36:01;4.43;;;2.20;;
609;SDS011;292;48.800;9.216;2024-03-23T11:38:30;3.65;;;2.08;;
609;SDS011;292;48.800;9.216;2024-03-23T11:41:02;3.75;;;1.90;;
609;SDS011;292;48.800;9.216;2024-03-23T11:43:30;5.25;;;2.10;;
609;SDS011;292;48.800;9.216;2024-03-23T11:45:56;6.00;;;1.80;;
609;SDS011;292;48.800;9.216;2024-03-23T11:48:28;3.57;;;1.57;;
609;SDS011;292;48.800;9.216;2024-03-23T11:50:56;4.47;;;1.87;;
609;SDS011;292;48.800;9.216;2024-03-23T11:53:24;3.60;;;1.80;;
609;SDS011;292;48.800;9.216;2024-03-23T11:55:54;12.00;;;1.90;;
609;SDS011;292;48.800;9.216;2024-03-23T11:58:34;3.57;;;1.30;;
609;SDS011;292;48.800;9.216;2024-03-23T12:01:00;11.10;;;2.60;;
609;SDS011;292;48.800;9.216;2024-03-23T12:03:28;2.97;;;1.47;;
609;SDS011;292;48.800;9.216;2024-03-23T12:05:55;5.53;;;1.67;;
609;SDS011;292;48.800;9.216;2024-03-23T12:08:24;2.40;;;0.97;;
609;SDS011;292;48.800;9.216;2024-03-23T12:11:04;9.27;;;1.40;;
609;SDS011;292;48.800;9.216;2024-03-23T12:13:32;4.40;;;1.47;;
609;SDS011;292;48.800;9.216;2024-03-23T12:16:08;7.77;;;2.20;;
609;SDS011;292;48.800;9.216;2024-03-23T12:18:36;14.37;;;2.03;;
609;SDS011;292;48.800;9.216;2024-03-23T12:21:02;9.80;;;2.77;;
609;SDS011;292;48.800;9.216;2024-03-23T12:23:30;8.50;;;1.57;;
609;SDS011;292;48.800;9.216;2024-03-23T12:25:58;5.17;;;1.40;;
609;SDS011;292;48.800;9.216;2024-03-23T12:28:26;5.27;;;1.20;;
609;SDS011;292;48.800;9.216;2024-03-23T12:30:52;7.40;;;1.93;;
609;SDS011;292;48.800;9.216;2024-03-23T12:33:19;6.50;;;1.50;;
609;SDS011;292;48.800;9.216;2024-03-23T12:35:46;9.57;;;2.10;;
609;SDS011;292;48.800;9.216;2024-03-23T12:38:13;8.97;;;1.90;;
609;SDS011;292;48.800;9.216;2024-03-23T12:40:39;11.07;;;1.60;;
609;SDS011;292;48.800;9.216;2024-03-23T12:43:08;9.87;;;2.57;;
609;SDS011;292;48.800;9.216;2024-03-23T12:45:34;5.27;;;1.70;;
609;SDS011;292;48.800;9.216;2024-03-23T12:48:03;10.90;;;2.40;;
609;SDS011;292;48.800;9.216;2024-03-23T12:50:31;7.77;;;2.20;;
609;SDS011;292;48.800;9.216;2024-03-23T12:52:58;9.13;;;1.97;;
609;SDS011;292;48.800;9.216;2024-03-23T12:55:24;8.67;;;1.90;;
609;SDS011;292;48.800;9.216;2024-03-23T12:57:51;7.20;;;1.70;;
609;SDS011;292;48.800;9.216;2024-03-23T13:00:19;7.47;;;1.67;;
609;SDS011;292;48.800;9.216;2024-03-23T13:02:46;10.00;;;2.60;;
609;SDS011;292;48.800;9.216;2024-03-23T13:05:12;10.57;;;1.93;;
609;SDS011;292;48.800;9.216;2024-03-23T13:07:39;6.40;;;2.13;;
609;SDS011;292;48.800;9.216;2024-03-23T13:10:05;5.67;;;1.70;;
609;SDS011;292;48.800;9.216;2024-03-23T13:12:33;17.57;;;2.60;;
609;SDS011;292;48.800;9.216;2024-03-23T13:15:00;7.27;;;1.60;;
609;SDS011;292;48.800;9.216;2024-03-23T13:17:28;9.90;;;2.50;;
609;SDS011;292;48.800;9.216;2024-03-23T13:19:54;8.93;;;2.17;;
609;SDS011;292;48.800;9.216;2024-03-23T13:22:21;13.73;;;1.93;;
609;SDS011;292;48.800;9.216;2024-03-23T13:24:47;12.13;;;1.70;;
609;SDS011;292;48.800;9.216;2024-03-23T13:27:15;5.87;;;1.70;;
609;SDS011;292;48.800;9.216;2024-03-23T13:29:41;6.80;;;1.83;;
609;SDS011;292;48.800;9.216;2024-03-23T13:32:08;6.10;;;1.70;;
609;SDS011;292;48.800;9.216;2024-03-23T13:34:36;11.80;;;2.13;;
609;SDS011;292;48.800;9.216;2024-03-23T13:37:03;11.00;;;2.33;;
609;SDS011;292;48.800;9.216;2024-03-23T13:39:30;8.90;;;2.07;;
609;SDS011;292;48.800;9.216;2024-03-23T13:41:58;3.47;;;1.30;;
609;SDS011;292;48.800;9.216;2024-03-23T13:44:24;4.40;;;1.60;;
609;SDS011;292;48.800;9.216;2024-03-23T13:46:51;5.60;;;1.50;;
609;SDS011;292;48.800;9.216;2024-03-23T13:49:24;9.27;;;1.93;;
609;SDS011;292;48.800;9.216;2024-03-23T13:51:54;5.90;;;1.47;;
609;SDS011;292;48.800;9.216;2024-03-23T13:54:22;5.27;;;1.50;;
609;SDS011;292;48.800;9.216;2024-03-23T13:56:51;7.47;;;1.67;;
609;SDS011;292;48.800;9.216;2024-03-23T13:59:18;5.03;;;1.30;;
609;SDS011;292;48.800;9.216;2024-03-23T14:01:46;3.50;;;1.43;;
609;SDS011;292;48.800;9.216;2024-03-23T14:04:12;6.17;;;1.53;;
609;SDS011;292;48.800;9.216;2024-03-23T14:06:41;5.50;;;1.30;;
609;SDS011;292;48.800;9.216;2024-03-23T14:09:09;3.07;;;1.20;;
609;SDS011;292;48.800;9.216;2024-03-23T14:11:39;4.97;;;1.03;;
609;SDS011;292;48.800;9.216;2024-03-23T14:14:08;4.00;;;1.50;;
609;SDS011;292;48.800;9.216;2024-03-23T14:16:35;11.87;;;1.60;;
609;SDS011;292;48.800;9.216;2024-03-23T14:19:01;8.53;;;1.70;;
609;SDS011;292;48.800;9.216;2024-03-23T14:21:30;3.90;;;1.53;;
609;SDS011;292;48.800;9.216;2024-03-23T14:23:56;4.07;;;1.07;;
609;SDS011;292;48.800;9.216;2024-03-23T14:26:25;4.50;;;1.30;;
609;SDS011;292;48.800;9.216;2024-03-23T14:28:51;4.95;;;1.20;;
609;SDS011;292;48.800;9.216;2024-03-23T14:31:18;1.80;;;1.00;;
609;SDS011;292;48.800;9.216;2024-03-23T14:33:44;4.03;;;1.20;;
609;SDS011;292;48.800;9.216;2024-03-23T14:36:12;3.15;;;0.82;;
609;SDS011;292;48.800;9.216;2024-03-23T14:38:38;1.58;;;0.60;;
609;SDS011;292;48.800;9.216;2024-03-23T14:41:05;4.20;;;1.57;;
609;SDS011;292;48.800;9.216;2024-03-23T14:43:33;2.73;;;1.33;;
609;SDS011;292;48.800;9.216;2024-03-23T14:46:06;2.23;;;1.00;;
609;SDS011;292;48.800;9.216;2024-03-23T14:48:35;14.48;;;5.15;;
609;SDS011;292;48.800;9.216;2024-03-23T14:51:04;3.97;;;1.60;;
609;SDS011;292;48.800;9.216;2024-03-23T15:01:00;4.40;;;1.47;;
609;SDS011;292;48.800;9.216;2024-03-23T15:03:28;10.83;;;1.23;;
609;SDS011;292;48.800;9.216;2024-03-23T15:05:54;8.00;;;1.40;;
609;SDS011;292;48.800;9.216;2024-03-23T15:08:22;3.77;;;1.00;;
609;SDS011;292;48.800;9.216;2024-03-23T15:10:49;3.33;;;1.33;;
609;SDS011;292;48.800;9.216;2024-03-23T15:13:17;4.80;;;1.00;;
609;SDS011;292;48.800;9.216;2024-03-23T15:15:45;5.97;;;1.33;;
609;SDS011;292;48.800;9.216;2024-03-23T15:18:22;4.03;;;1.30;;
609;SDS011;292;48.800;9.216;2024-03-23T15:20:57;6.43;;;1.17;;
609;SDS011;292;48.800;9.216;2024-03-23T15:23:36;1.77;;;0.70;;
609;SDS011;292;48.800;9.216;2024-03-23T15:26:07;9.33;;;1.00;;
609;SDS011;292;48.800;9.216;2024-03-23T15:28:33;2.30;;;0.70;;
609;SDS011;292;48.800;9.216;2024-03-23T15:31:09;3.00;;;1.10;;
609;SDS011;292;48.800;9.216;2024-03-23T15:33:37;3.30;;;0.87;;
609;SDS011;292;48.800;9.216;2024-03-23T15:36:05;1.90;;;0.90;;
609;SDS011;292;48.800;9.216;2024-03-23T15:38:31;5.93;;;1.37;;
609;SDS011;292;48.800;9.216;2024-03-23T15:40:58;2.13;;;0.90;;
609;SDS011;292;48.800;9.216;2024-03-23T15:43:26;3.70;;;1.17;;
609;SDS011;292;48.800;9.216;2024-03-23T15:45:54;1.73;;;1.17;;
609;SDS011;292;48.800;9.216;2024-03-23T15:48:21;14.83;;;1.03;;
609;SDS011;292;48.800;9.216;2024-03-23T15:50:52;6.20;;;1.17;;
609;SDS011;292;48.800;9.216;2024-03-23T15:53:19;3.00;;;0.97;;
609;SDS011;292;48.800;9.216;2024-03-23T15:55:52;3.70;;;1.27;;
609;SDS011;292;48.800;9.216;2024-03-23T15:58:19;2.50;;;0.93;;
609;SDS011;292;48.800;9.216;2024-03-23T16:00:46;2.43;;;0.97;;
609;SDS011;292;48.800;9.216;2024-03-23T16:03:18;10.80;;;1.70;;
609;SDS011;292;48.800;9.216;2024-03-23T16:05:49;18.83;;;1.77;;
609;SDS011;292;48.800;9.216;2024-03-23T16:08:17;1.27;;;0.83;;
609;SDS011;292;48.800;9.216;2024-03-23T16:10:44;8.73;;;0.80;;
609;SDS011;292;48.800;9.216;2024-03-23T16:13:10;3.80;;;0.90;;
609;SDS011;292;48.800;9.216;2024-03-23T16:15:37;4.30;;;1.23;;
609;SDS011;292;48.800;9.216;2024-03-23T16:18:05;8.13;;;0.73;;
609;SDS011;292;48.800;9.216;2024-03-23T16:20:34;2.17;;;0.87;;
609;SDS011;292;48.800;9.216;2024-03-23T16:23:03;3.90;;;0.80;;
609;SDS011;292;48.800;9.216;2024-03-23T16:25:31;3.43;;;1.00;;
609;SDS011;292;48.800;9.216;2024-03-23T16:27:57;6.67;;;1.50;;
609;SDS011;292;48.800;9.216;2024-03-23T16:30:25;13.00;;;6.70;;
609;SDS011;292;48.800;9.216;2024-03-23T16:32:50;2.20;;;1.17;;
609;SDS011;292;48.800;9.216;2024-03-23T16:35:19;7.40;;;0.97;;
609;SDS011;292;48.800;9.216;2024-03-23T16:37:45;1.80;;;0.63;;
609;SDS011;292;48.800;9.216;2024-03-23T16:40:16;3.20;;;0.80;;
609;SDS011;292;48.800;9.216;2024-03-23T16:42:43;3.27;;;0.70;;
609;SDS011;292;48.800;9.216;2024-03-23T16:45:10;0.70;;;0.50;;
609;SDS011;292;48.800;9.216;2024-03-23T16:47:36;1.70;;;0.80;;
609;SDS011;292;48.800;9.216;2024-03-23T16:50:06;0.93;;;0.57;;
609;SDS011;292;48.800;9.216;2024-03-23T16:52:34;1.03;;;0.57;;